Time,TemperatureF,DewpointF,PressureIn,WindDirection,WindDirectionDegrees,WindSpeedMPH,WindSpeedGustMPH,Humidity,HourlyPrecipIn,Conditions,Clouds,dailyrainin,SoftwareType,DateUTC
2013-05-30 00:08:00,56.5,54.3,29.77,South,180,0.0,0.0,93,0.00,,,0.00,WUHU21636XXSP,2013-05-30 05:08:00,
2013-05-30 00:18:00,56.5,54.3,29.77,South,180,0.0,0.0,93,0.00,,,0.00,WUHU21636XXSP,2013-05-30 05:18:00,
2013-05-30 00:28:00,56.1,54.0,29.77,South,180,1.3,2.2,93,0.00,,,0.00,WUHU21636XXSP,2013-05-30 05:28:00,
2013-05-30 00:38:00,55.9,53.8,29.77,South,180,0.0,1.3,93,0.00,,,0.00,WUHU21636XXSP,2013-05-30 05:38:00,
2013-05-30 00:48:00,55.8,53.6,29.77,South,180,0.8,0.8,93,0.00,,,0.00,WUHU21636XXSP,2013-05-30 05:48:00,
2013-05-30 00:58:00,55.6,53.4,29.78,South,180,1.7,1.7,93,0.00,,,0.00,WUHU21636XXSP,2013-05-30 05:58:00,
2013-05-30 01:08:00,55.6,53.4,29.79,South,180,0.6,1.7,93,0.00,,,0.00,WUHU21636XXSP,2013-05-30 06:08:00,
2013-05-30 01:18:00,55.2,53.1,29.78,South,180,0.0,0.6,93,0.00,,,0.00,WUHU21636XXSP,2013-05-30 06:18:00,
2013-05-30 01:28:00,55.0,52.9,29.77,South,180,0.0,0.0,93,0.00,,,0.00,WUHU21636XXSP,2013-05-30 06:28:00,
2013-05-30 01:38:00,55.0,52.9,29.77,South,180,3.8,3.8,93,0.00,,,0.00,WUHU21636XXSP,2013-05-30 06:38:00,
2013-05-30 01:48:00,54.7,52.5,29.78,South,180,1.7,3.8,93,0.00,,,0.00,WUHU21636XXSP,2013-05-30 06:48:00,
2013-05-30 01:58:00,54.7,52.5,29.78,SSW,202,1.7,1.7,93,0.00,,,0.00,WUHU21636XXSP,2013-05-30 06:58:00,
2013-05-30 02:08:00,54.5,52.3,29.77,SSW,202,0.0,2.9,93,0.00,,,0.00,WUHU21636XXSP,2013-05-30 07:08:00,
2013-05-30 02:18:00,54.3,52.2,29.77,SSW,202,3.1,3.1,93,0.00,,,0.00,WUHU21636XXSP,2013-05-30 07:18:00,
2013-05-30 02:28:00,54.1,52.0,29.77,SSW,202,0.0,3.1,93,0.00,,,0.00,WUHU21636XXSP,2013-05-30 07:28:00,
2013-05-30 02:38:00,54.0,51.8,29.77,SSW,202,0.0,2.0,93,0.00,,,0.00,WUHU21636XXSP,2013-05-30 07:38:00,
2013-05-30 02:48:00,53.4,51.6,29.77,West,270,2.0,5.3,94,0.00,,,0.00,WUHU21636XXSP,2013-05-30 07:48:00,
2013-05-30 02:58:00,53.2,51.4,29.77,West,270,3.3,7.6,94,0.00,,,0.00,WUHU21636XXSP,2013-05-30 07:58:00,
2013-05-30 03:08:00,53.2,51.4,29.77,West,270,4.2,4.2,94,0.00,,,0.00,WUHU21636XXSP,2013-05-30 08:08:00,
2013-05-30 03:18:00,52.5,50.7,29.76,WSW,247,1.5,6.4,94,0.00,,,0.00,WUHU21636XXSP,2013-05-30 08:18:00,
2013-05-30 03:28:00,52.5,50.7,29.76,West,270,2.4,3.5,93,0.00,,,0.00,WUHU21636XXSP,2013-05-30 08:28:00,
2013-05-30 03:38:00,52.3,50.2,29.76,WSW,247,4.0,4.0,93,0.00,,,0.00,WUHU21636XXSP,2013-05-30 08:38:00,
2013-05-30 03:48:00,52.2,50.0,29.75,WSW,247,2.0,4.0,93,0.00,,,0.00,WUHU21636XXSP,2013-05-30 08:48:00,
2013-05-30 03:58:00,52.0,49.8,29.76,West,270,2.2,3.5,93,0.00,,,0.00,WUHU21636XXSP,2013-05-30 08:58:00,
2013-05-30 04:08:00,52.0,49.8,29.76,WSW,247,4.2,4.2,93,0.00,,,0.00,WUHU21636XXSP,2013-05-30 09:08:00,
2013-05-30 04:18:00,51.6,49.5,29.76,WSW,247,2.2,4.2,93,0.00,,,0.00,WUHU21636XXSP,2013-05-30 09:18:00,
2013-05-30 04:28:00,51.6,49.5,29.76,West,270,5.1,5.8,93,0.00,,,0.00,WUHU21636XXSP,2013-05-30 09:28:00,
2013-05-30 04:38:00,51.6,49.5,29.77,West,270,2.9,5.1,93,0.00,,,0.00,WUHU21636XXSP,2013-05-30 09:38:00,
2013-05-30 04:48:00,51.6,49.5,29.76,West,270,3.3,3.3,93,0.00,,,0.00,WUHU21636XXSP,2013-05-30 09:48:00,
2013-05-30 04:58:00,51.6,49.5,29.76,West,270,2.9,3.5,93,0.00,,,0.00,WUHU21636XXSP,2013-05-30 09:58:00,
2013-05-30 05:08:00,51.6,49.5,29.76,West,270,0.0,2.9,93,0.00,,,0.00,WUHU21636XXSP,2013-05-30 10:08:00,
2013-05-30 05:18:00,51.6,49.5,29.75,West,270,1.7,2.0,93,0.00,,,0.00,WUHU21636XXSP,2013-05-30 10:18:00,
2013-05-30 05:28:00,51.6,49.5,29.76,West,270,1.3,2.0,93,0.00,,,0.00,WUHU21636XXSP,2013-05-30 10:28:00,
2013-05-30 05:38:00,51.4,49.3,29.76,WSW,247,4.4,4.4,93,0.00,,,0.00,WUHU21636XXSP,2013-05-30 10:38:00,
2013-05-30 05:48:00,51.4,49.3,29.77,West,270,3.8,4.4,93,0.00,,,0.00,WUHU21636XXSP,2013-05-30 10:48:00,
2013-05-30 05:58:00,51.3,49.1,29.77,West,270,4.0,5.1,93,0.00,,,0.00,WUHU21636XXSP,2013-05-30 10:58:00,
2013-05-30 06:08:00,51.4,49.3,29.77,West,270,3.3,5.1,93,0.00,,,0.00,WUHU21636XXSP,2013-05-30 11:08:00,
2013-05-30 06:18:00,51.4,49.3,29.77,West,270,3.5,4.6,93,0.00,,,0.00,WUHU21636XXSP,2013-05-30 11:18:00,
2013-05-30 06:28:00,51.4,49.3,29.77,West,270,2.0,3.8,92,0.00,,,0.00,WUHU21636XXSP,2013-05-30 11:28:00,
2013-05-30 06:38:00,51.3,48.9,29.78,West,270,3.1,3.1,92,0.00,,,0.00,WUHU21636XXSP,2013-05-30 11:38:00,
2013-05-30 06:48:00,51.3,48.9,29.79,West,270,0.0,3.1,92,0.00,,,0.00,WUHU21636XXSP,2013-05-30 11:48:00,
2013-05-30 06:58:00,51.4,49.1,29.79,West,270,0.0,0.0,92,0.00,,,0.00,WUHU21636XXSP,2013-05-30 11:58:00,
2013-05-30 07:08:00,51.4,49.1,29.79,West,270,0.0,0.0,92,0.00,,,0.00,WUHU21636XXSP,2013-05-30 12:08:00,
2013-05-30 07:18:00,51.4,49.1,29.79,West,270,0.0,0.0,92,0.00,,,0.00,WUHU21636XXSP,2013-05-30 12:18:00,
2013-05-30 07:28:00,51.1,48.7,29.79,West,270,0.0,2.0,92,0.00,,,0.00,WUHU21636XXSP,2013-05-30 12:28:00,
2013-05-30 07:38:00,51.1,48.7,29.79,West,270,0.0,1.1,92,0.00,,,0.00,WUHU21636XXSP,2013-05-30 12:38:00,
2013-05-30 07:48:00,51.4,49.1,29.79,West,270,1.1,1.1,92,0.00,,,0.00,WUHU21636XXSP,2013-05-30 12:48:00,
2013-05-30 07:58:00,52.0,49.6,29.80,West,270,2.9,2.9,92,0.00,,,0.00,WUHU21636XXSP,2013-05-30 12:58:00,
2013-05-30 08:08:00,52.5,50.2,29.80,WNW,292,1.3,2.9,92,0.00,,,0.00,WUHU21636XXSP,2013-05-30 13:08:00,
2013-05-30 08:18:00,53.2,50.9,29.80,WNW,292,3.1,3.1,92,0.00,,,0.00,WUHU21636XXSP,2013-05-30 13:18:00,
2013-05-30 08:28:00,54.0,51.6,29.79,West,270,1.3,3.1,92,0.00,,,0.00,WUHU21636XXSP,2013-05-30 13:28:00,
2013-05-30 08:38:00,54.7,52.0,29.80,West,270,2.2,2.6,91,0.00,,,0.00,WUHU21636XXSP,2013-05-30 13:38:00,
2013-05-30 08:48:00,55.2,52.3,29.80,West,270,2.6,2.9,90,0.00,,,0.00,WUHU21636XXSP,2013-05-30 13:48:00,
2013-05-30 08:58:00,56.3,51.4,29.80,West,270,5.1,5.1,84,0.00,,,0.00,WUHU21636XXSP,2013-05-30 13:58:00,
2013-05-30 09:08:00,57.6,51.6,29.80,NW,315,3.3,8.2,81,0.00,,,0.00,WUHU21636XXSP,2013-05-30 14:08:00,
2013-05-30 09:18:00,57.9,51.4,29.80,NW,315,3.8,4.9,79,0.00,,,0.00,WUHU21636XXSP,2013-05-30 14:18:00,
2013-05-30 09:28:00,58.6,52.5,29.80,WNW,292,4.4,8.0,80,0.00,,,0.00,WUHU21636XXSP,2013-05-30 14:28:00,
2013-05-30 09:38:00,59.0,52.2,29.80,NNE,22,1.5,12.3,78,0.00,,,0.00,WUHU21636XXSP,2013-05-30 14:38:00,
2013-05-30 09:48:00,59.5,52.7,29.80,WNW,292,2.9,4.9,78,0.00,,,0.00,WUHU21636XXSP,2013-05-30 14:48:00,
2013-05-30 09:58:00,60.4,52.2,29.80,NW,315,7.8,11.4,74,0.00,,,0.00,WUHU21636XXSP,2013-05-30 14:58:00,
2013-05-30 10:08:00,61.3,51.8,29.80,WNW,292,4.6,11.4,71,0.00,,,0.00,WUHU21636XXSP,2013-05-30 15:08:00,
2013-05-30 10:18:00,61.5,52.0,29.80,WNW,292,4.6,13.4,71,0.00,,,0.00,WUHU21636XXSP,2013-05-30 15:18:00,
2013-05-30 10:28:00,61.9,51.1,29.79,NW,315,4.2,11.1,68,0.00,,,0.00,WUHU21636XXSP,2013-05-30 15:28:00,
2013-05-30 10:38:00,63.3,50.7,29.79,WNW,292,5.8,10.5,64,0.00,,,0.00,WUHU21636XXSP,2013-05-30 15:38:00,
2013-05-30 10:48:00,64.0,50.2,29.79,West,270,7.3,15.4,61,0.02,,,0.02,WUHU21636XXSP,2013-05-30 15:48:00,
2013-05-30 10:58:00,65.5,51.3,29.80,West,270,8.5,18.1,60,0.02,,,0.02,WUHU21636XXSP,2013-05-30 15:58:00,
2013-05-30 11:08:00,65.8,50.5,29.80,West,270,5.1,17.0,58,0.02,,,0.02,WUHU21636XXSP,2013-05-30 16:08:00,
2013-05-30 11:18:00,66.7,50.4,29.80,WNW,292,9.1,17.0,56,0.02,,,0.02,WUHU21636XXSP,2013-05-30 16:18:00,
2013-05-30 11:28:00,67.1,49.3,29.80,West,270,6.9,19.2,53,0.02,,,0.02,WUHU21636XXSP,2013-05-30 16:28:00,
2013-05-30 11:38:00,67.8,50.4,29.80,West,270,10.5,16.3,54,0.02,,,0.02,WUHU21636XXSP,2013-05-30 16:38:00,
2013-05-30 11:48:00,68.2,51.3,29.80,West,270,4.9,17.6,55,0.02,,,0.02,WUHU21636XXSP,2013-05-30 16:48:00,
2013-05-30 11:58:00,68.2,53.2,29.80,SW,225,10.2,19.9,59,0.02,,,0.02,WUHU21636XXSP,2013-05-30 16:58:00,
2013-05-30 12:08:00,68.0,51.1,29.80,West,270,8.5,19.6,55,0.00,,,0.02,WUHU21636XXSP,2013-05-30 17:08:00,
2013-05-30 12:18:00,68.2,51.3,29.80,WNW,292,6.4,17.2,55,0.00,,,0.02,WUHU21636XXSP,2013-05-30 17:18:00,
2013-05-30 12:28:00,68.5,51.6,29.79,West,270,8.7,15.8,55,0.00,,,0.02,WUHU21636XXSP,2013-05-30 17:28:00,
2013-05-30 12:38:00,69.3,50.7,29.78,NW,315,5.3,14.7,52,0.00,,,0.02,WUHU21636XXSP,2013-05-30 17:38:00,
2013-05-30 12:48:00,70.2,50.5,29.78,WNW,292,6.0,16.3,50,0.00,,,0.02,WUHU21636XXSP,2013-05-30 17:48:00,
2013-05-30 12:58:00,70.9,47.1,29.78,WSW,247,10.2,18.5,42,0.00,,,0.02,WUHU21636XXSP,2013-05-30 17:58:00,
2013-05-30 13:08:00,71.8,46.0,29.77,West,270,8.0,20.8,40,0.00,,,0.02,WUHU21636XXSP,2013-05-30 18:08:00,
2013-05-30 13:18:00,72.3,47.1,29.77,WNW,292,10.0,20.3,41,0.00,,,0.02,WUHU21636XXSP,2013-05-30 18:18:00,
2013-05-30 13:28:00,72.7,47.5,29.77,West,270,9.6,21.2,41,0.00,,,0.02,WUHU21636XXSP,2013-05-30 18:28:00,
2013-05-30 13:38:00,73.2,46.6,29.77,West,270,10.7,22.3,39,0.00,,,0.02,WUHU21636XXSP,2013-05-30 18:38:00,
2013-05-30 13:48:00,73.6,47.7,29.77,WNW,292,6.7,20.3,40,0.00,,,0.02,WUHU21636XXSP,2013-05-30 18:48:00,
2013-05-30 13:58:00,73.9,49.3,29.77,West,270,10.5,21.4,40,0.00,,,0.02,WUHU21636XXSP,2013-05-30 18:58:00,
2013-05-30 14:08:00,74.5,49.1,29.77,West,270,11.8,16.3,41,0.00,,,0.02,WUHU21636XXSP,2013-05-30 19:08:00,
2013-05-30 14:18:00,75.0,49.1,29.76,West,270,5.3,20.3,40,0.00,,,0.02,WUHU21636XXSP,2013-05-30 19:18:00,
2013-05-30 14:28:00,74.3,46.0,29.77,West,270,9.1,18.5,37,0.00,,,0.02,WUHU21636XXSP,2013-05-30 19:28:00,
2013-05-30 14:38:00,71.8,48.6,29.77,NW,315,4.4,32.8,44,0.00,,,0.02,WUHU21636XXSP,2013-05-30 19:38:00,
2013-05-30 14:48:00,70.3,46.0,29.77,WNW,292,6.0,12.9,42,0.00,,,0.02,WUHU21636XXSP,2013-05-30 19:48:00,
2013-05-30 14:58:00,68.9,50.0,29.78,West,270,7.6,19.9,51,0.00,,,0.02,WUHU21636XXSP,2013-05-30 19:58:00,
2013-05-30 15:08:00,67.3,50.0,29.77,West,270,1.1,11.6,61,0.00,,,0.02,WUHU21636XXSP,2013-05-30 20:08:00,
2013-05-30 15:18:00,68.9,52.0,29.77,WSW,247,4.0,4.0,55,0.00,,,0.02,WUHU21636XXSP,2013-05-30 20:18:00,
2013-05-30 15:28:00,69.1,51.6,29.77,SW,225,6.4,12.5,54,0.00,,,0.02,WUHU21636XXSP,2013-05-30 20:28:00,
2013-05-30 15:38:00,69.4,49.3,29.77,SW,225,9.1,19.4,49,0.00,,,0.02,WUHU21636XXSP,2013-05-30 20:38:00,
2013-05-30 15:48:00,70.5,51.4,29.76,SW,225,6.9,18.5,51,0.00,,,0.02,WUHU21636XXSP,2013-05-30 20:48:00,
2013-05-30 15:58:00,70.3,50.7,29.77,SW,225,4.0,13.8,50,0.00,,,0.02,WUHU21636XXSP,2013-05-30 20:58:00,
2013-05-30 16:08:00,68.5,45.0,29.78,West,270,14.5,23.0,43,0.00,,,0.02,WUHU21636XXSP,2013-05-30 21:08:00,
2013-05-30 16:18:00,66.9,45.9,29.78,West,270,8.0,22.3,47,0.00,,,0.02,WUHU21636XXSP,2013-05-30 21:18:00,
2013-05-30 16:28:00,65.8,45.0,29.77,South,180,7.6,20.3,47,0.00,,,0.02,WUHU21636XXSP,2013-05-30 21:28:00,
2013-05-30 16:38:00,64.9,45.1,29.77,South,180,6.9,17.2,49,0.00,,,0.02,WUHU21636XXSP,2013-05-30 21:38:00,
2013-05-30 16:48:00,64.0,45.9,29.77,SSW,202,5.8,8.5,52,0.00,,,0.02,WUHU21636XXSP,2013-05-30 21:48:00,
2013-05-30 16:58:00,63.9,46.8,29.78,WSW,247,3.5,9.6,56,0.00,,,0.02,WUHU21636XXSP,2013-05-30 21:58:00,
2013-05-30 17:08:00,63.7,47.5,29.79,West,270,0.0,3.5,56,0.00,,,0.02,WUHU21636XXSP,2013-05-30 22:08:00,
2013-05-30 17:18:00,64.2,46.0,29.79,WSW,247,4.9,6.2,52,0.00,,,0.02,WUHU21636XXSP,2013-05-30 22:18:00,
2013-05-30 17:28:00,64.2,46.6,29.78,WSW,247,5.3,5.3,53,0.00,,,0.02,WUHU21636XXSP,2013-05-30 22:28:00,
2013-05-30 17:38:00,64.8,46.0,29.78,WSW,247,6.4,11.6,51,0.00,,,0.02,WUHU21636XXSP,2013-05-30 22:38:00,
2013-05-30 17:49:00,64.8,47.1,29.80,WSW,247,3.3,8.5,53,0.00,,,0.02,WUHU21636XXSP,2013-05-30 22:49:00,
2013-05-30 17:59:00,64.4,46.8,29.80,WSW,247,3.8,8.2,53,0.00,,,0.02,WUHU21636XXSP,2013-05-30 22:59:00,
2013-05-30 18:09:00,64.2,46.0,29.81,SSW,202,4.9,6.9,52,0.00,,,0.02,WUHU21636XXSP,2013-05-30 23:09:00,
2013-05-30 18:19:00,64.2,46.6,29.80,SSW,202,7.8,16.7,53,0.00,,,0.02,WUHU21636XXSP,2013-05-30 23:19:00,
2013-05-30 18:29:00,63.7,46.9,29.79,SSE,157,3.3,19.6,55,0.00,,,0.02,WUHU21636XXSP,2013-05-30 23:29:00,
2013-05-30 18:39:00,63.1,47.5,29.79,South,180,4.6,10.7,57,0.00,,,0.02,WUHU21636XXSP,2013-05-30 23:39:00,
2013-05-30 18:49:00,64.0,50.2,29.79,SSW,202,6.0,8.7,61,0.00,,,0.02,WUHU21636XXSP,2013-05-30 23:49:00,
2013-05-30 18:59:00,65.1,48.9,29.80,SSW,202,1.7,7.8,56,0.00,,,0.02,WUHU21636XXSP,2013-05-30 23:59:00,
2013-05-30 19:09:00,64.9,49.6,29.81,SSW,202,0.0,2.0,59,0.00,,,0.02,WUHU21636XXSP,2013-05-31 00:09:00,
2013-05-30 19:19:00,64.9,48.7,29.81,SSW,202,5.3,8.2,56,0.00,,,0.02,WUHU21636XXSP,2013-05-31 00:19:00,
2013-05-30 19:29:00,65.8,48.6,29.81,SW,225,3.1,11.8,54,0.00,,,0.02,WUHU21636XXSP,2013-05-31 00:29:00,
2013-05-30 19:39:00,65.5,49.3,29.81,SSW,202,0.0,3.1,56,0.00,,,0.02,WUHU21636XXSP,2013-05-31 00:39:00,
2013-05-30 19:49:00,65.1,49.3,29.81,SW,225,1.5,1.5,57,0.00,,,0.02,WUHU21636XXSP,2013-05-31 00:49:00,
2013-05-30 19:59:00,64.9,49.1,29.81,SW,225,2.0,3.8,56,0.00,,,0.02,WUHU21636XXSP,2013-05-31 00:59:00,
2013-05-30 20:09:00,64.9,49.1,29.82,SW,225,0.0,2.9,57,0.00,,,0.02,WUHU21636XXSP,2013-05-31 01:09:00,
2013-05-30 20:19:00,64.8,48.9,29.81,SW,225,2.9,2.9,56,0.00,,,0.02,WUHU21636XXSP,2013-05-31 01:19:00,
2013-05-30 20:29:00,64.9,49.1,29.81,SW,225,1.5,2.9,59,0.00,,,0.02,WUHU21636XXSP,2013-05-31 01:29:00,
2013-05-30 20:39:00,64.6,49.8,29.80,South,180,8.0,9.1,59,0.00,,,0.02,WUHU21636XXSP,2013-05-31 01:39:00,
2013-05-30 20:49:00,64.4,50.5,29.81,South,180,8.9,13.1,61,0.00,,,0.02,WUHU21636XXSP,2013-05-31 01:49:00,
2013-05-30 20:59:00,64.0,50.2,29.81,South,180,2.9,8.5,61,0.00,,,0.02,WUHU21636XXSP,2013-05-31 01:59:00,
2013-05-30 21:09:00,63.3,50.0,29.81,SSW,202,4.9,4.9,62,0.00,,,0.02,WUHU21636XXSP,2013-05-31 02:09:00,
2013-05-30 21:19:00,62.4,49.6,29.82,SSW,202,3.3,4.9,63,0.00,,,0.02,WUHU21636XXSP,2013-05-31 02:19:00,
2013-05-30 21:29:00,61.9,49.5,29.82,SSW,202,4.0,6.2,64,0.00,,,0.02,WUHU21636XXSP,2013-05-31 02:29:00,
2013-05-30 21:39:00,61.3,49.8,29.83,South,180,3.3,8.9,66,0.00,,,0.02,WUHU21636XXSP,2013-05-31 02:39:00,
2013-05-30 21:49:00,60.4,49.5,29.83,SSW,202,0.0,4.9,67,0.00,,,0.02,WUHU21636XXSP,2013-05-31 02:49:00,
2013-05-30 21:59:00,60.1,49.5,29.84,WSW,247,3.3,7.3,68,0.00,,,0.02,WUHU21636XXSP,2013-05-31 02:59:00,
2013-05-30 22:09:00,60.1,48.6,29.84,West,270,3.3,6.2,66,0.00,,,0.02,WUHU21636XXSP,2013-05-31 03:09:00,
2013-05-30 22:19:00,60.3,48.0,29.85,West,270,4.2,4.9,64,0.00,,,0.02,WUHU21636XXSP,2013-05-31 03:19:00,
2013-05-30 22:29:00,60.3,48.0,29.85,SW,225,4.0,4.2,64,0.00,,,0.02,WUHU21636XXSP,2013-05-31 03:29:00,
2013-05-30 22:39:00,60.4,47.7,29.86,WSW,247,0.0,6.4,63,0.00,,,0.02,WUHU21636XXSP,2013-05-31 03:39:00,
2013-05-30 22:49:00,60.1,47.8,29.86,SSW,202,3.1,4.2,64,0.00,,,0.02,WUHU21636XXSP,2013-05-31 03:49:00,
2013-05-30 22:59:00,60.1,47.8,29.87,SSW,202,3.3,5.3,64,0.00,,,0.02,WUHU21636XXSP,2013-05-31 03:59:00,
2013-05-30 23:09:00,59.9,47.7,29.86,WSW,247,0.0,3.3,64,0.00,,,0.02,WUHU21636XXSP,2013-05-31 04:09:00,
2013-05-30 23:19:00,59.9,47.7,29.87,WSW,247,2.0,5.1,65,0.00,,,0.02,WUHU21636XXSP,2013-05-31 04:19:00,
2013-05-30 23:29:00,59.9,47.7,29.87,SW,225,2.0,13.1,64,0.00,,,0.02,WUHU21636XXSP,2013-05-31 04:29:00,
2013-05-30 23:39:00,59.7,47.8,29.87,West,270,3.3,3.5,65,0.00,,,0.02,WUHU21636XXSP,2013-05-31 04:39:00,
2013-05-30 23:49:00,59.7,47.5,29.88,West,270,2.9,9.3,64,0.00,,,0.02,WUHU21636XXSP,2013-05-31 04:49:00,
2013-05-30 23:59:00,59.7,47.5,29.89,WSW,247,1.3,6.4,64,0.00,,,0.02,WUHU21636XXSP,2013-05-31 04:59:00,